sensor_id;sensor_type;location;lat;lon;timestamp;temperature;humidity
71142;DHT22;58808;59.366;17.970;2023-01-26T00:01:12;4.50;99.90
71142;DHT22;58808;59.366;17.970;2023-01-26T00:03:38;4.40;99.90
71142;DHT22;58808;59.366;17.970;2023-01-26T00:06:08;4.50;99.90
71142;DHT22;58808;59.366;17.970;2023-01-26T00:08:46;4.50;99.90
71142;DHT22;58808;59.366;17.970;2023-01-26T00:11:15;4.50;99.90
71142;DHT22;58808;59.366;17.970;2023-01-26T00:13:41;4.40;99.90
71142;DHT22;58808;59.366;17.970;2023-01-26T00:16:09;4.40;99.90
71142;DHT22;58808;59.366;17.970;2023-01-26T00:18:36;4.40;99.90
71142;DHT22;58808;59.366;17.970;2023-01-26T00:21:03;4.50;99.90
71142;DHT22;58808;59.366;17.970;2023-01-26T00:23:30;4.40;99.90
71142;DHT22;58808;59.366;17.970;2023-01-26T00:25:56;4.50;99.90
71142;DHT22;58808;59.366;17.970;2023-01-26T00:28:22;4.50;99.90
71142;DHT22;58808;59.366;17.970;2023-01-26T00:30:48;4.50;99.90
71142;DHT22;58808;59.366;17.970;2023-01-26T00:33:14;4.50;99.90
71142;DHT22;58808;59.366;17.970;2023-01-26T00:35:40;4.50;99.90
71142;DHT22;58808;59.366;17.970;2023-01-26T00:38:12;4.50;99.90
71142;DHT22;58808;59.366;17.970;2023-01-26T00:40:38;4.50;99.90
71142;DHT22;58808;59.366;17.970;2023-01-26T00:43:05;4.50;99.90
71142;DHT22;58808;59.366;17.970;2023-01-26T00:45:30;4.50;99.90
71142;DHT22;58808;59.366;17.970;2023-01-26T00:47:56;4.50;99.90
71142;DHT22;58808;59.366;17.970;2023-01-26T00:50:22;4.50;99.90
71142;DHT22;58808;59.366;17.970;2023-01-26T00:52:47;4.40;99.90
71142;DHT22;58808;59.366;17.970;2023-01-26T00:55:13;4.50;99.90
71142;DHT22;58808;59.366;17.970;2023-01-26T00:57:39;4.50;99.90
71142;DHT22;58808;59.366;17.970;2023-01-26T01:00:05;4.50;99.90
71142;DHT22;58808;59.366;17.970;2023-01-26T01:02:32;4.50;99.90
71142;DHT22;58808;59.366;17.970;2023-01-26T01:04:57;4.50;99.90
71142;DHT22;58808;59.366;17.970;2023-01-26T01:07:23;4.60;99.90
71142;DHT22;58808;59.366;17.970;2023-01-26T01:09:49;4.60;99.90
71142;DHT22;58808;59.366;17.970;2023-01-26T01:12:14;4.60;99.90
71142;DHT22;58808;59.366;17.970;2023-01-26T01:14:40;4.60;99.90
71142;DHT22;58808;59.366;17.970;2023-01-26T01:17:06;4.60;99.90
71142;DHT22;58808;59.366;17.970;2023-01-26T01:19:32;4.60;99.90
71142;DHT22;58808;59.366;17.970;2023-01-26T01:21:57;4.60;99.90
71142;DHT22;58808;59.366;17.970;2023-01-26T01:24:23;4.60;99.90
71142;DHT22;58808;59.366;17.970;2023-01-26T01:26:49;4.60;99.90
71142;DHT22;58808;59.366;17.970;2023-01-26T01:29:15;4.60;99.90
71142;DHT22;58808;59.366;17.970;2023-01-26T01:31:40;4.60;99.90
71142;DHT22;58808;59.366;17.970;2023-01-26T01:34:07;4.60;99.90
71142;DHT22;58808;59.366;17.970;2023-01-26T01:36:33;4.70;99.90
71142;DHT22;58808;59.366;17.970;2023-01-26T01:38:59;4.70;99.90
71142;DHT22;58808;59.366;17.970;2023-01-26T01:41:25;4.70;99.90
71142;DHT22;58808;59.366;17.970;2023-01-26T01:44:19;4.70;99.90
71142;DHT22;58808;59.366;17.970;2023-01-26T01:46:46;4.70;99.90
71142;DHT22;58808;59.366;17.970;2023-01-26T01:49:18;4.60;99.90
71142;DHT22;58808;59.366;17.970;2023-01-26T01:54:45;4.50;99.90
71142;DHT22;58808;59.366;17.970;2023-01-26T01:57:16;4.50;99.90
71142;DHT22;58808;59.366;17.970;2023-01-26T01:59:55;4.50;99.90
71142;DHT22;58808;59.366;17.970;2023-01-26T02:02:22;4.50;99.90
71142;DHT22;58808;59.366;17.970;2023-01-26T02:04:48;4.50;99.90
71142;DHT22;58808;59.366;17.970;2023-01-26T02:07:14;4.50;99.90
71142;DHT22;58808;59.366;17.970;2023-01-26T02:09:41;4.50;99.90
71142;DHT22;58808;59.366;17.970;2023-01-26T02:12:29;4.50;99.90
71142;DHT22;58808;59.366;17.970;2023-01-26T02:14:56;4.50;99.90
71142;DHT22;58808;59.366;17.970;2023-01-26T02:17:22;4.50;99.90
71142;DHT22;58808;59.366;17.970;2023-01-26T02:24:55;4.50;99.90
71142;DHT22;58808;59.366;17.970;2023-01-26T02:27:24;4.50;99.90
71142;DHT22;58808;59.366;17.970;2023-01-26T02:29:50;4.50;99.90
71142;DHT22;58808;59.366;17.970;2023-01-26T02:32:16;4.50;99.90
71142;DHT22;58808;59.366;17.970;2023-01-26T02:34:42;4.60;99.90
71142;DHT22;58808;59.366;17.970;2023-01-26T02:37:13;4.50;99.90
71142;DHT22;58808;59.366;17.970;2023-01-26T02:39:47;4.60;99.90
71142;DHT22;58808;59.366;17.970;2023-01-26T02:42:14;4.60;99.90
71142;DHT22;58808;59.366;17.970;2023-01-26T02:44:58;4.60;99.90
71142;DHT22;58808;59.366;17.970;2023-01-26T02:47:24;4.60;99.90
71142;DHT22;58808;59.366;17.970;2023-01-26T02:49:49;4.70;99.90
71142;DHT22;58808;59.366;17.970;2023-01-26T02:52:24;4.70;99.90
71142;DHT22;58808;59.366;17.970;2023-01-26T02:54:51;4.70;99.90
71142;DHT22;58808;59.366;17.970;2023-01-26T02:57:35;4.60;99.90
71142;DHT22;58808;59.366;17.970;2023-01-26T03:00:03;4.60;99.90
71142;DHT22;58808;59.366;17.970;2023-01-26T03:02:29;4.70;99.90
71142;DHT22;58808;59.366;17.970;2023-01-26T03:04:54;4.60;99.90
71142;DHT22;58808;59.366;17.970;2023-01-26T03:07:20;4.70;99.90
71142;DHT22;58808;59.366;17.970;2023-01-26T03:09:46;4.70;99.90
71142;DHT22;58808;59.366;17.970;2023-01-26T03:12:11;4.70;99.90
71142;DHT22;58808;59.366;17.970;2023-01-26T03:14:37;4.70;99.90
71142;DHT22;58808;59.366;17.970;2023-01-26T03:17:03;4.80;99.90
71142;DHT22;58808;59.366;17.970;2023-01-26T03:19:29;4.80;99.90
71142;DHT22;58808;59.366;17.970;2023-01-26T03:22:14;4.70;99.90
71142;DHT22;58808;59.366;17.970;2023-01-26T03:24:58;4.70;99.90
71142;DHT22;58808;59.366;17.970;2023-01-26T03:27:44;4.80;99.90
71142;DHT22;58808;59.366;17.970;2023-01-26T03:30:12;4.80;99.90
71142;DHT22;58808;59.366;17.970;2023-01-26T03:32:38;4.80;99.90
71142;DHT22;58808;59.366;17.970;2023-01-26T03:35:04;4.80;99.90
71142;DHT22;58808;59.366;17.970;2023-01-26T03:37:30;4.80;99.90
71142;DHT22;58808;59.366;17.970;2023-01-26T03:40:02;4.80;99.90
71142;DHT22;58808;59.366;17.970;2023-01-26T03:42:46;4.80;99.90
71142;DHT22;58808;59.366;17.970;2023-01-26T03:45:30;4.90;99.90
71142;DHT22;58808;59.366;17.970;2023-01-26T03:48:14;4.90;99.90
71142;DHT22;58808;59.366;17.970;2023-01-26T03:50:58;4.90;99.90
71142;DHT22;58808;59.366;17.970;2023-01-26T03:53:43;4.90;99.90
71142;DHT22;58808;59.366;17.970;2023-01-26T03:56:28;4.90;99.90
71142;DHT22;58808;59.366;17.970;2023-01-26T03:59:01;4.90;99.90
71142;DHT22;58808;59.366;17.970;2023-01-26T04:01:34;4.90;99.90
71142;DHT22;58808;59.366;17.970;2023-01-26T04:04:00;4.90;99.90
71142;DHT22;58808;59.366;17.970;2023-01-26T04:06:46;4.90;99.90
71142;DHT22;58808;59.366;17.970;2023-01-26T04:09:31;4.90;99.90
71142;DHT22;58808;59.366;17.970;2023-01-26T04:11:57;4.90;99.90
71142;DHT22;58808;59.366;17.970;2023-01-26T04:14:23;4.90;99.90
71142;DHT22;58808;59.366;17.970;2023-01-26T04:17:07;4.90;99.90
71142;DHT22;58808;59.366;17.970;2023-01-26T04:19:52;4.90;99.90
71142;DHT22;58808;59.366;17.970;2023-01-26T04:22:37;4.90;99.90
71142;DHT22;58808;59.366;17.970;2023-01-26T04:25:12;5.00;99.90
71142;DHT22;58808;59.366;17.970;2023-01-26T04:27:39;4.90;99.90
71142;DHT22;58808;59.366;17.970;2023-01-26T04:30:07;5.00;99.90
71142;DHT22;58808;59.366;17.970;2023-01-26T04:32:33;5.00;99.90
71142;DHT22;58808;59.366;17.970;2023-01-26T04:34:59;5.00;99.90
71142;DHT22;58808;59.366;17.970;2023-01-26T04:37:25;5.00;99.90
71142;DHT22;58808;59.366;17.970;2023-01-26T04:39:50;4.90;99.90
71142;DHT22;58808;59.366;17.970;2023-01-26T04:42:16;4.90;99.90
71142;DHT22;58808;59.366;17.970;2023-01-26T04:44:42;4.90;99.90
71142;DHT22;58808;59.366;17.970;2023-01-26T04:47:08;4.90;99.90
71142;DHT22;58808;59.366;17.970;2023-01-26T04:49:33;4.90;99.90
71142;DHT22;58808;59.366;17.970;2023-01-26T04:51:59;4.90;99.90
71142;DHT22;58808;59.366;17.970;2023-01-26T04:54:25;4.90;99.90
71142;DHT22;58808;59.366;17.970;2023-01-26T04:56:50;4.90;99.90
71142;DHT22;58808;59.366;17.970;2023-01-26T04:59:16;4.90;99.90
71142;DHT22;58808;59.366;17.970;2023-01-26T05:01:42;4.90;99.90
71142;DHT22;58808;59.366;17.970;2023-01-26T05:04:09;4.90;99.90
71142;DHT22;58808;59.366;17.970;2023-01-26T05:06:35;4.90;99.90
71142;DHT22;58808;59.366;17.970;2023-01-26T05:09:02;4.90;99.90
71142;DHT22;58808;59.366;17.970;2023-01-26T05:11:28;4.90;99.90
71142;DHT22;58808;59.366;17.970;2023-01-26T05:13:54;4.90;99.90
71142;DHT22;58808;59.366;17.970;2023-01-26T05:16:19;4.90;99.90
71142;DHT22;58808;59.366;17.970;2023-01-26T05:18:45;4.90;99.90
71142;DHT22;58808;59.366;17.970;2023-01-26T05:21:11;4.90;99.90
71142;DHT22;58808;59.366;17.970;2023-01-26T05:23:37;4.90;99.90
71142;DHT22;58808;59.366;17.970;2023-01-26T05:26:03;4.90;99.90
71142;DHT22;58808;59.366;17.970;2023-01-26T05:28:29;4.90;99.90
71142;DHT22;58808;59.366;17.970;2023-01-26T05:30:54;4.90;99.90
71142;DHT22;58808;59.366;17.970;2023-01-26T05:33:20;4.90;99.90
71142;DHT22;58808;59.366;17.970;2023-01-26T05:35:50;4.90;99.90
71142;DHT22;58808;59.366;17.970;2023-01-26T05:38:17;4.90;99.90
71142;DHT22;58808;59.366;17.970;2023-01-26T05:40:42;5.00;99.90
71142;DHT22;58808;59.366;17.970;2023-01-26T05:43:09;4.90;99.90
71142;DHT22;58808;59.366;17.970;2023-01-26T05:45:35;4.90;99.90
71142;DHT22;58808;59.366;17.970;2023-01-26T05:48:01;4.90;99.90
71142;DHT22;58808;59.366;17.970;2023-01-26T05:50:27;4.90;99.90
71142;DHT22;58808;59.366;17.970;2023-01-26T05:52:53;4.90;99.90
71142;DHT22;58808;59.366;17.970;2023-01-26T05:55:18;4.80;99.90
71142;DHT22;58808;59.366;17.970;2023-01-26T05:57:44;4.80;99.90
71142;DHT22;58808;59.366;17.970;2023-01-26T06:00:11;4.80;99.90
71142;DHT22;58808;59.366;17.970;2023-01-26T06:02:38;4.80;99.90
71142;DHT22;58808;59.366;17.970;2023-01-26T06:05:04;4.80;99.90
71142;DHT22;58808;59.366;17.970;2023-01-26T06:07:30;4.90;99.90
71142;DHT22;58808;59.366;17.970;2023-01-26T06:09:56;4.90;99.90
71142;DHT22;58808;59.366;17.970;2023-01-26T06:12:21;4.80;99.90
71142;DHT22;58808;59.366;17.970;2023-01-26T06:14:47;4.90;99.90
71142;DHT22;58808;59.366;17.970;2023-01-26T06:17:15;4.80;99.90
71142;DHT22;58808;59.366;17.970;2023-01-26T06:19:41;4.80;99.90
71142;DHT22;58808;59.366;17.970;2023-01-26T06:22:12;4.80;99.90
71142;DHT22;58808;59.366;17.970;2023-01-26T06:24:38;4.80;99.90
71142;DHT22;58808;59.366;17.970;2023-01-26T06:27:05;4.80;99.90
71142;DHT22;58808;59.366;17.970;2023-01-26T06:29:32;4.80;99.90
71142;DHT22;58808;59.366;17.970;2023-01-26T06:31:59;4.80;99.90
71142;DHT22;58808;59.366;17.970;2023-01-26T06:34:25;4.80;99.90
71142;DHT22;58808;59.366;17.970;2023-01-26T06:36:51;4.80;99.90
71142;DHT22;58808;59.366;17.970;2023-01-26T06:39:16;4.80;99.90
71142;DHT22;58808;59.366;17.970;2023-01-26T06:41:43;4.80;99.90
71142;DHT22;58808;59.366;17.970;2023-01-26T06:44:09;4.80;99.90
71142;DHT22;58808;59.366;17.970;2023-01-26T06:46:35;4.80;99.90
71142;DHT22;58808;59.366;17.970;2023-01-26T06:49:02;4.80;99.90
71142;DHT22;58808;59.366;17.970;2023-01-26T06:54:18;4.80;99.90
71142;DHT22;58808;59.366;17.970;2023-01-26T06:56:44;4.90;99.90
71142;DHT22;58808;59.366;17.970;2023-01-26T06:59:10;4.80;99.90
71142;DHT22;58808;59.366;17.970;2023-01-26T07:01:40;4.80;99.90
71142;DHT22;58808;59.366;17.970;2023-01-26T07:04:05;4.80;99.90
71142;DHT22;58808;59.366;17.970;2023-01-26T07:06:31;4.80;99.90
71142;DHT22;58808;59.366;17.970;2023-01-26T07:08:57;4.90;99.90
71142;DHT22;58808;59.366;17.970;2023-01-26T07:11:23;4.90;99.90
71142;DHT22;58808;59.366;17.970;2023-01-26T07:13:50;4.90;99.90
71142;DHT22;58808;59.366;17.970;2023-01-26T07:16:16;4.90;99.90
71142;DHT22;58808;59.366;17.970;2023-01-26T07:18:42;4.90;99.90
71142;DHT22;58808;59.366;17.970;2023-01-26T07:21:16;4.90;99.90
71142;DHT22;58808;59.366;17.970;2023-01-26T07:23:46;4.90;99.90
71142;DHT22;58808;59.366;17.970;2023-01-26T07:26:12;4.90;99.90
71142;DHT22;58808;59.366;17.970;2023-01-26T07:28:38;4.90;99.90
71142;DHT22;58808;59.366;17.970;2023-01-26T07:31:05;4.90;99.90
71142;DHT22;58808;59.366;17.970;2023-01-26T07:33:32;4.90;99.90
71142;DHT22;58808;59.366;17.970;2023-01-26T07:35:58;4.90;99.90
71142;DHT22;58808;59.366;17.970;2023-01-26T07:38:25;4.90;99.90
71142;DHT22;58808;59.366;17.970;2023-01-26T07:40:51;4.90;99.90
71142;DHT22;58808;59.366;17.970;2023-01-26T07:43:17;4.80;99.90
71142;DHT22;58808;59.366;17.970;2023-01-26T07:45:48;4.80;99.90
71142;DHT22;58808;59.366;17.970;2023-01-26T07:48:16;4.80;99.90
71142;DHT22;58808;59.366;17.970;2023-01-26T07:50:43;4.80;99.90
71142;DHT22;58808;59.366;17.970;2023-01-26T07:53:10;4.80;99.90
71142;DHT22;58808;59.366;17.970;2023-01-26T07:55:37;4.90;99.90
71142;DHT22;58808;59.366;17.970;2023-01-26T07:58:03;4.80;99.90
71142;DHT22;58808;59.366;17.970;2023-01-26T08:00:29;4.80;99.90
71142;DHT22;58808;59.366;17.970;2023-01-26T08:02:54;4.80;99.90
71142;DHT22;58808;59.366;17.970;2023-01-26T08:05:20;4.80;99.90
71142;DHT22;58808;59.366;17.970;2023-01-26T08:07:46;4.80;99.90
71142;DHT22;58808;59.366;17.970;2023-01-26T08:10:11;4.70;99.90
71142;DHT22;58808;59.366;17.970;2023-01-26T08:12:39;4.70;99.90
71142;DHT22;58808;59.366;17.970;2023-01-26T08:15:04;4.70;99.90
71142;DHT22;58808;59.366;17.970;2023-01-26T08:17:30;4.70;99.90
71142;DHT22;58808;59.366;17.970;2023-01-26T08:19:58;4.70;99.90
71142;DHT22;58808;59.366;17.970;2023-01-26T08:22:24;4.70;99.90
71142;DHT22;58808;59.366;17.970;2023-01-26T08:24:50;4.70;99.90
71142;DHT22;58808;59.366;17.970;2023-01-26T08:27:16;4.60;99.90
71142;DHT22;58808;59.366;17.970;2023-01-26T08:29:42;4.60;99.90
71142;DHT22;58808;59.366;17.970;2023-01-26T08:32:08;4.60;99.90
71142;DHT22;58808;59.366;17.970;2023-01-26T08:34:34;4.60;99.90
71142;DHT22;58808;59.366;17.970;2023-01-26T08:37:00;4.60;99.90
71142;DHT22;58808;59.366;17.970;2023-01-26T08:39:26;4.50;99.90
71142;DHT22;58808;59.366;17.970;2023-01-26T08:41:53;4.50;99.90
71142;DHT22;58808;59.366;17.970;2023-01-26T08:44:18;4.50;99.90
71142;DHT22;58808;59.366;17.970;2023-01-26T08:46:44;4.50;99.90
71142;DHT22;58808;59.366;17.970;2023-01-26T08:49:10;4.40;99.90
71142;DHT22;58808;59.366;17.970;2023-01-26T08:51:36;4.40;99.90
71142;DHT22;58808;59.366;17.970;2023-01-26T08:54:04;4.40;99.90
71142;DHT22;58808;59.366;17.970;2023-01-26T08:56:32;4.40;99.90
71142;DHT22;58808;59.366;17.970;2023-01-26T08:58:58;4.30;99.90
71142;DHT22;58808;59.366;17.970;2023-01-26T09:01:24;4.30;99.90
71142;DHT22;58808;59.366;17.970;2023-01-26T09:03:50;4.30;99.90
71142;DHT22;58808;59.366;17.970;2023-01-26T09:06:18;4.30;99.90
71142;DHT22;58808;59.366;17.970;2023-01-26T09:08:44;4.30;99.90
71142;DHT22;58808;59.366;17.970;2023-01-26T09:11:10;4.30;99.90
71142;DHT22;58808;59.366;17.970;2023-01-26T09:13:37;4.30;99.90
71142;DHT22;58808;59.366;17.970;2023-01-26T09:16:05;4.30;99.90
71142;DHT22;58808;59.366;17.970;2023-01-26T09:18:31;4.30;99.90
71142;DHT22;58808;59.366;17.970;2023-01-26T09:21:04;4.20;99.90
71142;DHT22;58808;59.366;17.970;2023-01-26T09:23:32;4.20;99.90
71142;DHT22;58808;59.366;17.970;2023-01-26T09:25:58;4.20;99.90
71142;DHT22;58808;59.366;17.970;2023-01-26T09:28:24;4.20;99.90
71142;DHT22;58808;59.366;17.970;2023-01-26T09:30:49;4.20;99.90
71142;DHT22;58808;59.366;17.970;2023-01-26T09:33:15;4.20;99.90
71142;DHT22;58808;59.366;17.970;2023-01-26T09:35:41;4.20;99.90
71142;DHT22;58808;59.366;17.970;2023-01-26T09:38:06;4.30;99.90
71142;DHT22;58808;59.366;17.970;2023-01-26T09:40:41;4.30;99.90
71142;DHT22;58808;59.366;17.970;2023-01-26T09:43:42;4.30;99.90
71142;DHT22;58808;59.366;17.970;2023-01-26T09:49:08;4.40;99.90
71142;DHT22;58808;59.366;17.970;2023-01-26T09:51:46;4.40;99.90
71142;DHT22;58808;59.366;17.970;2023-01-26T09:56:49;4.40;99.90
71142;DHT22;58808;59.366;17.970;2023-01-26T10:01:58;4.40;99.90
71142;DHT22;58808;59.366;17.970;2023-01-26T10:04:32;4.30;99.90
71142;DHT22;58808;59.366;17.970;2023-01-26T10:07:08;4.40;99.90
71142;DHT22;58808;59.366;17.970;2023-01-26T10:09:36;4.40;99.90
71142;DHT22;58808;59.366;17.970;2023-01-26T10:12:11;4.40;99.90
71142;DHT22;58808;59.366;17.970;2023-01-26T10:14:48;4.50;99.90
71142;DHT22;58808;59.366;17.970;2023-01-26T10:17:21;4.50;99.90
71142;DHT22;58808;59.366;17.970;2023-01-26T10:19:56;4.50;99.90
71142;DHT22;58808;59.366;17.970;2023-01-26T10:22:32;4.50;99.90
71142;DHT22;58808;59.366;17.970;2023-01-26T10:25:00;4.50;99.90
71142;DHT22;58808;59.366;17.970;2023-01-26T10:27:29;4.50;99.90
71142;DHT22;58808;59.366;17.970;2023-01-26T10:29:55;4.60;99.90
71142;DHT22;58808;59.366;17.970;2023-01-26T10:32:20;4.70;99.90
71142;DHT22;58808;59.366;17.970;2023-01-26T10:34:48;4.70;99.90
71142;DHT22;58808;59.366;17.970;2023-01-26T10:37:23;4.80;99.90
71142;DHT22;58808;59.366;17.970;2023-01-26T10:40:11;4.90;99.90
71142;DHT22;58808;59.366;17.970;2023-01-26T10:42:37;5.00;99.90
71142;DHT22;58808;59.366;17.970;2023-01-26T10:45:30;5.10;99.90
71142;DHT22;58808;59.366;17.970;2023-01-26T10:50:40;5.30;99.90
71142;DHT22;58808;59.366;17.970;2023-01-26T10:53:23;5.40;99.90
71142;DHT22;58808;59.366;17.970;2023-01-26T10:56:04;5.40;99.90
71142;DHT22;58808;59.366;17.970;2023-01-26T11:01:06;5.30;99.90
71142;DHT22;58808;59.366;17.970;2023-01-26T11:03:38;5.20;99.90
71142;DHT22;58808;59.366;17.970;2023-01-26T11:06:13;5.10;99.90
71142;DHT22;58808;59.366;17.970;2023-01-26T11:08:40;5.10;99.90
71142;DHT22;58808;59.366;17.970;2023-01-26T11:11:23;5.00;99.90
71142;DHT22;58808;59.366;17.970;2023-01-26T11:14:14;4.90;99.90
71142;DHT22;58808;59.366;17.970;2023-01-26T11:16:49;4.80;99.90
71142;DHT22;58808;59.366;17.970;2023-01-26T11:22:18;4.80;99.90
71142;DHT22;58808;59.366;17.970;2023-01-26T11:24:54;4.70;99.90
71142;DHT22;58808;59.366;17.970;2023-01-26T11:27:52;4.70;99.90
71142;DHT22;58808;59.366;17.970;2023-01-26T11:38:40;5.00;99.90
71142;DHT22;58808;59.366;17.970;2023-01-26T11:46:27;5.30;99.90
71142;DHT22;58808;59.366;17.970;2023-01-26T11:54:57;5.40;99.90
71142;DHT22;58808;59.366;17.970;2023-01-26T12:03:09;5.60;99.90
71142;DHT22;58808;59.366;17.970;2023-01-26T12:05:43;5.60;99.90
71142;DHT22;58808;59.366;17.970;2023-01-26T12:13:37;5.70;98.10
71142;DHT22;58808;59.366;17.970;2023-01-26T12:25:01;5.20;99.90
71142;DHT22;58808;59.366;17.970;2023-01-26T12:27:32;5.20;99.90
71142;DHT22;58808;59.366;17.970;2023-01-26T12:32:34;5.10;99.90
71142;DHT22;58808;59.366;17.970;2023-01-26T12:34:59;5.10;99.90
71142;DHT22;58808;59.366;17.970;2023-01-26T12:37:36;5.00;99.90
71142;DHT22;58808;59.366;17.970;2023-01-26T12:43:00;5.00;99.90
71142;DHT22;58808;59.366;17.970;2023-01-26T12:45:38;4.90;98.20
71142;DHT22;58808;59.366;17.970;2023-01-26T12:48:54;4.90;97.30
71142;DHT22;58808;59.366;17.970;2023-01-26T12:51:05;4.80;97.90
71142;DHT22;58808;59.366;17.970;2023-01-26T12:56:38;4.80;98.40
71142;DHT22;58808;59.366;17.970;2023-01-26T12:59:21;4.70;97.20
71142;DHT22;58808;59.366;17.970;2023-01-26T13:01:49;4.70;97.50
71142;DHT22;58808;59.366;17.970;2023-01-26T13:04:16;4.60;99.10
71142;DHT22;58808;59.366;17.970;2023-01-26T13:06:42;4.60;98.60
71142;DHT22;58808;59.366;17.970;2023-01-26T13:09:24;4.60;99.40
71142;DHT22;58808;59.366;17.970;2023-01-26T13:11:56;4.60;94.60
71142;DHT22;58808;59.366;17.970;2023-01-26T13:14:36;4.60;93.00
71142;DHT22;58808;59.366;17.970;2023-01-26T13:19:53;4.50;91.40
71142;DHT22;58808;59.366;17.970;2023-01-26T13:27:44;4.30;91.10
71142;DHT22;58808;59.366;17.970;2023-01-26T13:33:12;4.20;90.40
71142;DHT22;58808;59.366;17.970;2023-01-26T13:35:40;4.20;87.70
71142;DHT22;58808;59.366;17.970;2023-01-26T13:40:53;4.10;90.60
71142;DHT22;58808;59.366;17.970;2023-01-26T13:43:25;4.00;89.60
71142;DHT22;58808;59.366;17.970;2023-01-26T13:46:17;4.00;88.60
71142;DHT22;58808;59.366;17.970;2023-01-26T13:48:54;3.90;87.50
71142;DHT22;58808;59.366;17.970;2023-01-26T13:51:33;3.90;88.40
71142;DHT22;58808;59.366;17.970;2023-01-26T13:54:11;3.90;88.60
71142;DHT22;58808;59.366;17.970;2023-01-26T13:56:39;3.90;87.10
71142;DHT22;58808;59.366;17.970;2023-01-26T13:59:11;3.80;89.10
71142;DHT22;58808;59.366;17.970;2023-01-26T14:04:22;3.80;90.70
71142;DHT22;58808;59.366;17.970;2023-01-26T14:07:12;3.80;89.90
71142;DHT22;58808;59.366;17.970;2023-01-26T14:09:49;3.70;90.40
71142;DHT22;58808;59.366;17.970;2023-01-26T14:12:29;3.70;91.80
71142;DHT22;58808;59.366;17.970;2023-01-26T14:14:58;3.70;91.00
71142;DHT22;58808;59.366;17.970;2023-01-26T14:19:58;3.60;92.80
71142;DHT22;58808;59.366;17.970;2023-01-26T14:22:26;3.60;94.60
71142;DHT22;58808;59.366;17.970;2023-01-26T14:24:52;3.60;94.60
71142;DHT22;58808;59.366;17.970;2023-01-26T14:27:25;3.60;94.30
71142;DHT22;58808;59.366;17.970;2023-01-26T14:29:53;3.60;92.60
71142;DHT22;58808;59.366;17.970;2023-01-26T14:32:19;3.60;93.00
71142;DHT22;58808;59.366;17.970;2023-01-26T14:34:55;3.50;92.80
71142;DHT22;58808;59.366;17.970;2023-01-26T14:37:22;3.50;92.70
71142;DHT22;58808;59.366;17.970;2023-01-26T14:39:49;3.40;93.80
71142;DHT22;58808;59.366;17.970;2023-01-26T14:42:33;3.40;94.00
71142;DHT22;58808;59.366;17.970;2023-01-26T14:45:00;3.40;93.10
71142;DHT22;58808;59.366;17.970;2023-01-26T14:47:29;3.40;94.10
71142;DHT22;58808;59.366;17.970;2023-01-26T14:52:50;3.30;94.20
71142;DHT22;58808;59.366;17.970;2023-01-26T14:57:48;3.20;94.80
71142;DHT22;58808;59.366;17.970;2023-01-26T15:00:32;3.20;95.40
71142;DHT22;58808;59.366;17.970;2023-01-26T15:02:59;3.20;94.40
71142;DHT22;58808;59.366;17.970;2023-01-26T15:05:35;3.20;94.50
71142;DHT22;58808;59.366;17.970;2023-01-26T15:08:21;3.20;93.40
71142;DHT22;58808;59.366;17.970;2023-01-26T15:13:41;3.10;94.70
71142;DHT22;58808;59.366;17.970;2023-01-26T15:16:26;3.10;94.70
71142;DHT22;58808;59.366;17.970;2023-01-26T15:18:59;3.00;94.90
71142;DHT22;58808;59.366;17.970;2023-01-26T15:21:34;3.10;93.90
71142;DHT22;58808;59.366;17.970;2023-01-26T15:24:04;3.00;94.70
71142;DHT22;58808;59.366;17.970;2023-01-26T15:26:32;3.00;94.50
71142;DHT22;58808;59.366;17.970;2023-01-26T15:29:03;3.00;94.30
71142;DHT22;58808;59.366;17.970;2023-01-26T15:31:37;2.90;94.20
71142;DHT22;58808;59.366;17.970;2023-01-26T15:34:05;2.90;94.40
71142;DHT22;58808;59.366;17.970;2023-01-26T15:39:13;2.80;95.60
71142;DHT22;58808;59.366;17.970;2023-01-26T15:41:40;2.80;95.10
71142;DHT22;58808;59.366;17.970;2023-01-26T15:44:15;2.80;95.10
71142;DHT22;58808;59.366;17.970;2023-01-26T15:46:42;2.70;95.80
71142;DHT22;58808;59.366;17.970;2023-01-26T15:49:08;2.70;97.50
71142;DHT22;58808;59.366;17.970;2023-01-26T15:51:35;2.70;98.20
71142;DHT22;58808;59.366;17.970;2023-01-26T15:54:01;2.70;98.40
71142;DHT22;58808;59.366;17.970;2023-01-26T15:56:27;2.70;97.30
71142;DHT22;58808;59.366;17.970;2023-01-26T15:58:52;2.70;98.10
71142;DHT22;58808;59.366;17.970;2023-01-26T16:01:20;2.60;99.50
71142;DHT22;58808;59.366;17.970;2023-01-26T16:03:47;2.60;99.90
71142;DHT22;58808;59.366;17.970;2023-01-26T16:06:31;2.50;99.90
71142;DHT22;58808;59.366;17.970;2023-01-26T16:08:57;2.40;99.90
71142;DHT22;58808;59.366;17.970;2023-01-26T16:11:35;2.40;99.90
71142;DHT22;58808;59.366;17.970;2023-01-26T16:14:01;2.30;99.90
71142;DHT22;58808;59.366;17.970;2023-01-26T16:16:27;2.30;99.90
71142;DHT22;58808;59.366;17.970;2023-01-26T16:18:54;2.40;99.90
71142;DHT22;58808;59.366;17.970;2023-01-26T16:21:23;2.40;99.90
71142;DHT22;58808;59.366;17.970;2023-01-26T16:23:49;2.40;99.10
71142;DHT22;58808;59.366;17.970;2023-01-26T16:26:17;2.40;99.90
71142;DHT22;58808;59.366;17.970;2023-01-26T16:28:43;2.40;99.90
71142;DHT22;58808;59.366;17.970;2023-01-26T16:31:22;2.30;99.90
71142;DHT22;58808;59.366;17.970;2023-01-26T16:33:48;2.30;99.90
71142;DHT22;58808;59.366;17.970;2023-01-26T16:36:16;2.20;99.90
71142;DHT22;58808;59.366;17.970;2023-01-26T16:38:42;2.20;99.90
71142;DHT22;58808;59.366;17.970;2023-01-26T16:41:34;2.20;99.90
71142;DHT22;58808;59.366;17.970;2023-01-26T16:44:01;2.10;99.90
71142;DHT22;58808;59.366;17.970;2023-01-26T16:46:28;2.10;99.90
71142;DHT22;58808;59.366;17.970;2023-01-26T16:48:55;2.10;99.90
71142;DHT22;58808;59.366;17.970;2023-01-26T16:53:50;2.00;99.90
71142;DHT22;58808;59.366;17.970;2023-01-26T16:56:17;1.90;99.90
71142;DHT22;58808;59.366;17.970;2023-01-26T16:58:43;1.90;99.90
71142;DHT22;58808;59.366;17.970;2023-01-26T17:03:41;1.80;99.90
71142;DHT22;58808;59.366;17.970;2023-01-26T17:06:06;1.90;99.90
71142;DHT22;58808;59.366;17.970;2023-01-26T17:08:33;1.80;99.90
71142;DHT22;58808;59.366;17.970;2023-01-26T17:10:59;1.90;99.90
71142;DHT22;58808;59.366;17.970;2023-01-26T17:13:25;1.90;99.90
71142;DHT22;58808;59.366;17.970;2023-01-26T17:15:50;1.90;99.90
71142;DHT22;58808;59.366;17.970;2023-01-26T17:18:16;1.80;99.90
71142;DHT22;58808;59.366;17.970;2023-01-26T17:20:42;1.80;99.90
71142;DHT22;58808;59.366;17.970;2023-01-26T17:23:07;1.70;99.90
71142;DHT22;58808;59.366;17.970;2023-01-26T17:25:33;1.70;99.90
71142;DHT22;58808;59.366;17.970;2023-01-26T17:27:59;1.70;99.90
71142;DHT22;58808;59.366;17.970;2023-01-26T17:30:25;1.70;99.90
71142;DHT22;58808;59.366;17.970;2023-01-26T17:32:51;1.60;99.90
71142;DHT22;58808;59.366;17.970;2023-01-26T17:35:16;1.70;99.90